F/V J. Louis Vincent — FQBL — position and weather

sailwx.info

Track history (hours):
 
Tides and Currents Weather Stations Pressure Air Temp Water Temp Dewpoint Dewpoint Depression Visibility Wind Speed Wind Dir Waves Ship Positions

F/V J. Louis Vincent

Last reported at 2017-Aug-21 06:53 UTC. Time now 2017-Oct-22 13:55 UTC.
Position N 43°19' E 005°22'.
Warning: this ship's position is months out of date.

Length 29 m; draft 4.5 m.

Type: Tow > 200 m length. MMSI: 227146600.

Date/timePositionNaut miles runAvg speedWind from/ knotsBaromVisibWave heightAir tempDewpointWater temp
2017-Aug-21 06:53N 43°19' E 005°22'0 0.0
2017-Aug-21 06:30N 43°19' E 005°22'0 0.0
2017-Aug-21 06:00N 43°19' E 005°22'0 0.0
2017-Aug-21 05:30N 43°19' E 005°22'1 1.6
2017-Aug-21 05:00N 43°20' E 005°21'10 8.3
2017-Aug-21 03:51N 43°17' E 005°08'3 9.5
2017-Aug-21 03:31N 43°17' E 005°04'5 9.4
2017-Aug-21 03:00N 43°16' E 004°57'5 9.3
2017-Aug-21 02:30N 43°15' E 004°51'5 9.3
2017-Aug-21 02:00N 43°15' E 004°45'5 9.5
2017-Aug-21 01:30N 43°15' E 004°38'5 9.7
2017-Aug-21 01:01N 43°16' E 004°32'5 9.8
2017-Aug-21 00:30N 43°17' E 004°25'5 9.8
2017-Aug-21 00:00N 43°18' E 004°18'5 9.8
2017-Aug-20 23:30N 43°19' E 004°12'5 9.9
2017-Aug-20 23:00N 43°20' E 004°05'  
2017-Aug-18 15:51N 43°24' E 003°42'0 0.0
2017-Aug-18 15:31N 43°24' E 003°42'0 0.0
2017-Aug-18 15:01N 43°24' E 003°42'0 0.0
2017-Aug-18 14:00N 43°24' E 003°42'0 0.1
2017-Aug-18 13:30N 43°24' E 003°42'0 0.0
2017-Aug-18 13:00N 43°24' E 003°42'0 0.9
2017-Aug-18 12:31N 43°24' E 003°42'0 0.0
2017-Aug-18 12:01N 43°24' E 003°42'0 0.9
2017-Aug-18 11:30N 43°24' E 003°42'0 0.0
2017-Aug-18 11:00N 43°24' E 003°42'0 0.0
2017-Aug-18 10:30N 43°24' E 003°42'4 8.5
2017-Aug-18 10:01N 43°21' E 003°45'510.4
2017-Aug-18 09:30N 43°17' E 003°51'510.8
2017-Aug-18 09:00N 43°13' E 003°56'511.0
2017-Aug-18 08:31N 43°09' E 004°01'510.8
2017-Aug-18 08:00N 43°05' E 004°06'510.6
2017-Aug-18 07:30N 43°01' E 004°11'510.5
2017-Aug-18 07:00N 42°58' E 004°16'510.6
2017-Aug-18 06:30N 42°54' E 004°21'510.5
2017-Aug-18 06:01N 42°50' E 004°25'510.5
2017-Aug-18 05:30N 42°46' E 004°30'510.0
2017-Aug-18 05:00N 42°42' E 004°34'5 9.9
2017-Aug-18 04:30N 42°38' E 004°38'510.0
2017-Aug-18 04:01N 42°34' E 004°42'510.1
2017-Aug-18 03:30N 42°30' E 004°46'510.0
2017-Aug-18 03:00N 42°25' E 004°50'5 9.8
2017-Aug-18 02:31N 42°22' E 004°54'5 9.6
2017-Aug-18 02:01N 42°18' E 004°58'5 9.6
2017-Aug-18 01:31N 42°14' E 005°02'5 9.9
2017-Aug-18 00:59N 42°10' E 005°06'264 9.9
2017-Aug-16 22:20N 38°44' E 008°43'310.0
2017-Aug-16 21:59N 38°43' E 008°47'5 9.7
2017-Aug-16 21:25N 38°41' E 008°53'4 9.6
2017-Aug-16 21:00N 38°39' E 008°58'5 9.7
2017-Aug-16 20:29N 38°37' E 009°04'510.0
2017-Aug-16 19:59N 38°35' E 009°10'510.1
2017-Aug-16 19:30N 38°33' E 009°15'510.0
2017-Aug-16 19:00N 38°31' E 009°21'510.0
2017-Aug-16 18:30N 38°29' E 009°27'6 9.9
2017-Aug-16 17:56N 38°27' E 009°34'6 9.9
2017-Aug-16 17:18N 38°24' E 009°41'3 9.9
2017-Aug-16 17:00N 38°23' E 009°44'5 9.9
2017-Aug-16 16:29N 38°21' E 009°50'5 9.8
2017-Aug-16 16:00N 38°19' E 009°56'5 9.7
2017-Aug-16 15:30N 38°17' E 010°01'5 9.5
2017-Aug-16 15:00N 38°15' E 010°07'5 8.9
2017-Aug-16 14:29N 38°13' E 010°12'5 9.2
2017-Aug-16 13:56N 38°11' E 010°18'12 9.4
2017-Aug-16 12:41N 38°06' E 010°32'109 8.8
2017-Aug-16 00:15N 37°13' E 012°32'2 7.9
2017-Aug-16 00:00N 37°12' E 012°34'5 7.5
2017-Aug-15 23:19N 37°10' E 012°40'5 8.2
2017-Aug-15 22:40N 37°07' E 012°45'1 8.2
2017-Aug-15 22:30N 37°06' E 012°47'12 8.5
2017-Aug-15 21:03N 36°58' E 012°59'0 8.6
2017-Aug-15 21:00N 36°58' E 012°59'4 8.6
2017-Aug-15 20:30N 36°55' E 013°04'4 8.8
2017-Aug-15 20:00N 36°53' E 013°08'11 8.9
2017-Aug-15 18:44N 36°46' E 013°19'2 9.0
2017-Aug-15 18:28N 36°44' E 013°22'4 9.0
2017-Aug-15 18:00N 36°42' E 013°26'4 9.0
2017-Aug-15 17:30N 36°39' E 013°30'5 8.9
2017-Aug-15 17:00N 36°37' E 013°35'4 8.6
2017-Aug-15 16:30N 36°34' E 013°39'4 8.7
2017-Aug-15 16:00N 36°32' E 013°44'5 8.8
2017-Aug-15 15:30N 36°29' E 013°48'5 8.7
2017-Aug-15 14:57N 36°26' E 013°53'4 8.4
2017-Aug-15 14:31N 36°24' E 013°56'5 8.4
2017-Aug-15 13:58N 36°21' E 014°01'4 8.6
2017-Aug-15 13:30N 36°18' E 014°05'4 8.4
2017-Aug-15 13:00N 36°16' E 014°09'4 8.3
2017-Aug-15 12:30N 36°13' E 014°13'4 8.3
2017-Aug-15 12:00N 36°10' E 014°16'4 8.1
2017-Aug-15 11:30N 36°08' E 014°20'4 8.2
2017-Aug-15 11:00N 36°05' E 014°24'4 8.1
2017-Aug-15 10:30N 36°02' E 014°27'4 8.3
2017-Aug-15 10:00N 35°58' E 014°30'4 7.8
2017-Aug-15 09:30N 35°55' E 014°32'4 0.4
2017-Aug-14 22:44N 35°59' E 014°30'2 6.9
2017-Aug-14 22:30N 36°00' E 014°31'3 6.6
2017-Aug-14 22:00N 35°57' E 014°32'  
Track history (hours):
 
Tides and Currents Weather Stations Pressure Air Temp Water Temp Dewpoint Dewpoint Depression Visibility Wind Speed Wind Dir Waves Ship Positions

F/V J. Louis Vincent

Last reported at 2017-Aug-21 06:53 UTC. Time now 2017-Oct-22 13:55 UTC.
Position N 43°19' E 005°22'.
Warning: this ship's position is months out of date.

Length 29 m; draft 4.5 m.

Type: Tow > 200 m length. MMSI: 227146600.

Date/timePositionNaut miles runAvg speedWind from/ knotsBaromVisibWave heightAir tempDewpointWater temp
2017-Aug-21 06:53N 43°19' E 005°22'0 0.0
2017-Aug-21 06:30N 43°19' E 005°22'0 0.0
2017-Aug-21 06:00N 43°19' E 005°22'0 0.0
2017-Aug-21 05:30N 43°19' E 005°22'1 1.6
2017-Aug-21 05:00N 43°20' E 005°21'10 8.3
2017-Aug-21 03:51N 43°17' E 005°08'3 9.5
2017-Aug-21 03:31N 43°17' E 005°04'5 9.4
2017-Aug-21 03:00N 43°16' E 004°57'5 9.3
2017-Aug-21 02:30N 43°15' E 004°51'5 9.3
2017-Aug-21 02:00N 43°15' E 004°45'5 9.5
2017-Aug-21 01:30N 43°15' E 004°38'5 9.7
2017-Aug-21 01:01N 43°16' E 004°32'5 9.8
2017-Aug-21 00:30N 43°17' E 004°25'5 9.8
2017-Aug-21 00:00N 43°18' E 004°18'5 9.8
2017-Aug-20 23:30N 43°19' E 004°12'5 9.9
2017-Aug-20 23:00N 43°20' E 004°05'  
2017-Aug-18 15:51N 43°24' E 003°42'0 0.0
2017-Aug-18 15:31N 43°24' E 003°42'0 0.0
2017-Aug-18 15:01N 43°24' E 003°42'0 0.0
2017-Aug-18 14:00N 43°24' E 003°42'0 0.1
2017-Aug-18 13:30N 43°24' E 003°42'0 0.0
2017-Aug-18 13:00N 43°24' E 003°42'0 0.9
2017-Aug-18 12:31N 43°24' E 003°42'0 0.0
2017-Aug-18 12:01N 43°24' E 003°42'0 0.9
2017-Aug-18 11:30N 43°24' E 003°42'0 0.0
2017-Aug-18 11:00N 43°24' E 003°42'0 0.0
2017-Aug-18 10:30N 43°24' E 003°42'4 8.5
2017-Aug-18 10:01N 43°21' E 003°45'510.4
2017-Aug-18 09:30N 43°17' E 003°51'510.8
2017-Aug-18 09:00N 43°13' E 003°56'511.0
2017-Aug-18 08:31N 43°09' E 004°01'510.8
2017-Aug-18 08:00N 43°05' E 004°06'510.6
2017-Aug-18 07:30N 43°01' E 004°11'510.5
2017-Aug-18 07:00N 42°58' E 004°16'510.6
2017-Aug-18 06:30N 42°54' E 004°21'510.5
2017-Aug-18 06:01N 42°50' E 004°25'510.5
2017-Aug-18 05:30N 42°46' E 004°30'510.0
2017-Aug-18 05:00N 42°42' E 004°34'5 9.9
2017-Aug-18 04:30N 42°38' E 004°38'510.0
2017-Aug-18 04:01N 42°34' E 004°42'510.1
2017-Aug-18 03:30N 42°30' E 004°46'510.0
2017-Aug-18 03:00N 42°25' E 004°50'5 9.8
2017-Aug-18 02:31N 42°22' E 004°54'5 9.6
2017-Aug-18 02:01N 42°18' E 004°58'5 9.6
2017-Aug-18 01:31N 42°14' E 005°02'5 9.9
2017-Aug-18 00:59N 42°10' E 005°06'264 9.9
2017-Aug-16 22:20N 38°44' E 008°43'310.0
2017-Aug-16 21:59N 38°43' E 008°47'5 9.7
2017-Aug-16 21:25N 38°41' E 008°53'4 9.6
2017-Aug-16 21:00N 38°39' E 008°58'5 9.7
2017-Aug-16 20:29N 38°37' E 009°04'510.0
2017-Aug-16 19:59N 38°35' E 009°10'510.1
2017-Aug-16 19:30N 38°33' E 009°15'510.0
2017-Aug-16 19:00N 38°31' E 009°21'510.0
2017-Aug-16 18:30N 38°29' E 009°27'6 9.9
2017-Aug-16 17:56N 38°27' E 009°34'6 9.9
2017-Aug-16 17:18N 38°24' E 009°41'3 9.9
2017-Aug-16 17:00N 38°23' E 009°44'5 9.9
2017-Aug-16 16:29N 38°21' E 009°50'5 9.8
2017-Aug-16 16:00N 38°19' E 009°56'5 9.7
2017-Aug-16 15:30N 38°17' E 010°01'5 9.5
2017-Aug-16 15:00N 38°15' E 010°07'5 8.9
2017-Aug-16 14:29N 38°13' E 010°12'5 9.2
2017-Aug-16 13:56N 38°11' E 010°18'12 9.4
2017-Aug-16 12:41N 38°06' E 010°32'109 8.8
2017-Aug-16 00:15N 37°13' E 012°32'2 7.9
2017-Aug-16 00:00N 37°12' E 012°34'5 7.5
2017-Aug-15 23:19N 37°10' E 012°40'5 8.2
2017-Aug-15 22:40N 37°07' E 012°45'1 8.2
2017-Aug-15 22:30N 37°06' E 012°47'12 8.5
2017-Aug-15 21:03N 36°58' E 012°59'0 8.6
2017-Aug-15 21:00N 36°58' E 012°59'4 8.6
2017-Aug-15 20:30N 36°55' E 013°04'4 8.8
2017-Aug-15 20:00N 36°53' E 013°08'11 8.9
2017-Aug-15 18:44N 36°46' E 013°19'2 9.0
2017-Aug-15 18:28N 36°44' E 013°22'4 9.0
2017-Aug-15 18:00N 36°42' E 013°26'4 9.0
2017-Aug-15 17:30N 36°39' E 013°30'5 8.9
2017-Aug-15 17:00N 36°37' E 013°35'4 8.6
2017-Aug-15 16:30N 36°34' E 013°39'4 8.7
2017-Aug-15 16:00N 36°32' E 013°44'5 8.8
2017-Aug-15 15:30N 36°29' E 013°48'5 8.7
2017-Aug-15 14:57N 36°26' E 013°53'4 8.4
2017-Aug-15 14:31N 36°24' E 013°56'5 8.4
2017-Aug-15 13:58N 36°21' E 014°01'4 8.6
2017-Aug-15 13:30N 36°18' E 014°05'4 8.4
2017-Aug-15 13:00N 36°16' E 014°09'4 8.3
2017-Aug-15 12:30N 36°13' E 014°13'4 8.3
2017-Aug-15 12:00N 36°10' E 014°16'4 8.1
2017-Aug-15 11:30N 36°08' E 014°20'4 8.2
2017-Aug-15 11:00N 36°05' E 014°24'4 8.1
2017-Aug-15 10:30N 36°02' E 014°27'4 8.3
2017-Aug-15 10:00N 35°58' E 014°30'4 7.8
2017-Aug-15 09:30N 35°55' E 014°32'4 0.4
2017-Aug-14 22:44N 35°59' E 014°30'2 6.9
2017-Aug-14 22:30N 36°00' E 014°31'3 6.6
2017-Aug-14 22:00N 35°57' E 014°32'  

Dump ship's entire track history